createdAt,value
2023-01-09T00:00:57.819Z,27.55
2023-01-09T00:03:25.275Z,24.67
2023-01-09T00:05:52.496Z,27.48
2023-01-09T00:08:19.722Z,28.62
2023-01-09T00:10:49.339Z,26.33
2023-01-09T00:13:18.123Z,25.05
2023-01-09T00:15:45.544Z,25.65
2023-01-09T00:18:13.083Z,27.35
2023-01-09T00:20:40.539Z,20.33
2023-01-09T00:23:07.748Z,29.15
2023-01-09T00:25:35.719Z,27.95
2023-01-09T00:28:02.821Z,23.85
2023-01-09T00:30:30.007Z,24.35
2023-01-09T00:32:57.469Z,25.20
2023-01-09T00:35:26.668Z,25.88
2023-01-09T00:37:53.920Z,28.75
2023-01-09T00:40:21.730Z,25.60
2023-01-09T00:42:52.876Z,27.33
2023-01-09T00:45:28.600Z,25.12
2023-01-09T00:48:02.049Z,28.75
2023-01-09T00:50:32.044Z,24.02
2023-01-09T00:53:02.561Z,29.85
2023-01-09T00:55:29.649Z,26.17
2023-01-09T00:57:57.029Z,28.77
2023-01-09T01:00:24.450Z,24.90
2023-01-09T01:02:51.621Z,27.30
2023-01-09T01:05:36.999Z,29.12
2023-01-09T01:08:11.184Z,28.58
2023-01-09T01:10:38.445Z,25.62
2023-01-09T01:13:05.834Z,27.02
2023-01-09T01:15:32.914Z,26.15
2023-01-09T01:18:00.066Z,25.98
2023-01-09T01:20:27.401Z,27.77
2023-01-09T01:22:54.476Z,24.15
2023-01-09T01:25:22.036Z,22.25
2023-01-09T01:27:50.008Z,24.75
2023-01-09T01:30:18.583Z,20.92
2023-01-09T01:32:45.816Z,23.65
2023-01-09T01:35:13.316Z,21.73
2023-01-09T01:37:40.759Z,27.13
2023-01-09T01:40:11.609Z,20.62
2023-01-09T01:42:46.651Z,22.35
2023-01-09T01:45:23.110Z,21.33
2023-01-09T01:47:57.359Z,23.05
2023-01-09T01:50:26.317Z,24.48
2023-01-09T01:53:02.985Z,21.60
2023-01-09T01:55:30.394Z,22.27
2023-01-09T01:58:00.439Z,18.00
2023-01-09T02:00:31.959Z,20.10
2023-01-09T02:02:59.916Z,18.50
2023-01-09T02:05:27.487Z,21.00
2023-01-09T02:07:54.879Z,20.37
2023-01-09T02:10:23.625Z,18.52
2023-01-09T02:12:51.298Z,18.27
2023-01-09T02:15:18.865Z,16.37
2023-01-09T02:18:07.275Z,16.85
2023-01-09T02:20:46.192Z,17.00
2023-01-09T02:23:32.077Z,21.77
2023-01-09T02:26:36.417Z,22.90
2023-01-09T02:29:12.468Z,20.30
2023-01-09T02:31:45.617Z,16.75
2023-01-09T02:34:22.382Z,21.35
2023-01-09T02:37:01.960Z,21.25
2023-01-09T02:39:52.329Z,18.45
2023-01-09T02:42:23.820Z,18.15
2023-01-09T02:44:51.292Z,16.90
2023-01-09T02:47:18.373Z,16.05
2023-01-09T02:49:48.376Z,16.25
2023-01-09T02:52:30.466Z,16.12
2023-01-09T02:55:00.737Z,16.67
2023-01-09T02:57:36.899Z,15.77
2023-01-09T03:00:09.541Z,16.33
2023-01-09T03:02:57.718Z,16.12
2023-01-09T03:05:32.832Z,17.90
2023-01-09T03:08:03.405Z,16.40
2023-01-09T03:10:42.977Z,19.23
2023-01-09T03:13:12.196Z,13.98
2023-01-09T03:15:41.715Z,18.87
2023-01-09T03:18:10.467Z,18.52
2023-01-09T03:20:38.461Z,16.33
2023-01-09T03:23:07.116Z,18.58
2023-01-09T03:25:34.550Z,17.98
2023-01-09T03:28:04.537Z,22.70
2023-01-09T03:30:33.577Z,16.58
2023-01-09T03:33:01.186Z,16.73
2023-01-09T03:35:28.359Z,15.10
2023-01-09T03:37:55.803Z,18.00
2023-01-09T03:40:22.896Z,16.65
2023-01-09T03:42:50.053Z,18.00
2023-01-09T03:45:17.505Z,20.62
2023-01-09T03:47:44.659Z,17.60
2023-01-09T03:50:11.746Z,18.75
2023-01-09T03:52:39.146Z,19.33
2023-01-09T03:55:06.602Z,16.15
2023-01-09T03:57:33.720Z,17.20
2023-01-09T04:00:01.144Z,17.10
2023-01-09T04:02:28.348Z,17.95
2023-01-09T04:04:55.780Z,17.12
2023-01-09T04:07:22.917Z,21.92
2023-01-09T04:09:50.075Z,19.87
2023-01-09T04:12:17.555Z,18.12
2023-01-09T04:14:44.692Z,14.68
2023-01-09T04:17:11.864Z,20.08
2023-01-09T04:19:39.345Z,19.65
2023-01-09T04:22:06.516Z,17.05
2023-01-09T04:24:33.654Z,16.77
2023-01-09T04:27:01.086Z,17.70
2023-01-09T04:29:28.328Z,20.10
2023-01-09T04:31:55.505Z,23.12
2023-01-09T04:34:25.585Z,22.50
2023-01-09T04:36:53.411Z,18.35
2023-01-09T04:39:21.148Z,20.15
2023-01-09T04:41:51.654Z,17.27
2023-01-09T04:44:25.720Z,20.23
2023-01-09T04:49:21.205Z,18.52
2023-01-09T04:51:48.459Z,17.35
2023-01-09T04:54:16.151Z,18.35
2023-01-09T04:56:43.284Z,19.77
2023-01-09T04:59:10.443Z,16.20
2023-01-09T05:01:38.084Z,21.12
2023-01-09T05:04:05.600Z,19.08
2023-01-09T05:06:34.147Z,19.02
2023-01-09T05:09:01.661Z,18.25
2023-01-09T05:11:28.910Z,17.40
2023-01-09T05:13:56.047Z,17.70
2023-01-09T05:16:23.580Z,16.12
2023-01-09T05:18:56.415Z,19.20
2023-01-09T05:21:24.624Z,16.95
2023-01-09T05:23:52.172Z,16.20
2023-01-09T05:26:23.959Z,15.48
2023-01-09T05:28:52.224Z,19.00
2023-01-09T05:31:20.147Z,17.20
2023-01-09T05:33:47.832Z,17.75
2023-01-09T05:36:15.505Z,18.85
2023-01-09T05:38:42.712Z,17.37
2023-01-09T05:41:10.232Z,19.23
2023-01-09T05:43:37.639Z,18.65
2023-01-09T05:46:04.865Z,15.27
2023-01-09T05:48:31.952Z,21.52
2023-01-09T05:50:59.340Z,24.77
2023-01-09T05:53:26.725Z,18.50
2023-01-09T05:55:53.784Z,19.27
2023-01-09T05:58:21.164Z,17.17
2023-01-09T06:00:49.515Z,16.52
2023-01-09T06:03:16.875Z,19.92
2023-01-09T06:05:44.107Z,23.38
2023-01-09T06:08:11.157Z,24.80
2023-01-09T06:10:38.515Z,20.30
2023-01-09T06:13:05.609Z,17.33
2023-01-09T06:15:32.669Z,20.15
2023-01-09T06:18:00.131Z,16.33
2023-01-09T06:20:27.238Z,14.70
2023-01-09T06:22:54.360Z,17.73
2023-01-09T06:25:22.084Z,12.45
2023-01-09T06:27:49.893Z,21.98
2023-01-09T06:30:17.380Z,16.00
2023-01-09T06:32:44.943Z,19.60
2023-01-09T06:35:12.096Z,20.67
2023-01-09T06:37:39.219Z,18.42
2023-01-09T06:40:07.561Z,15.98
2023-01-09T06:42:34.714Z,13.05
2023-01-09T06:45:01.845Z,15.13
2023-01-09T06:47:29.297Z,49.78
2023-01-09T06:49:58.157Z,30.60
2023-01-09T06:52:25.342Z,24.45
2023-01-09T06:54:52.766Z,20.90
2023-01-09T06:57:19.915Z,46.15
2023-01-09T06:59:47.142Z,25.85
2023-01-09T07:02:18.269Z,17.87
2023-01-09T07:04:45.514Z,16.67
2023-01-09T07:07:13.197Z,19.80
2023-01-09T07:09:40.626Z,22.67
2023-01-09T07:12:07.813Z,23.23
2023-01-09T07:14:35.049Z,21.62
2023-01-09T07:17:03.510Z,22.67
2023-01-09T07:19:30.709Z,18.52
2023-01-09T07:22:00.515Z,21.98
2023-01-09T07:24:27.959Z,17.25
2023-01-09T07:26:55.099Z,16.23
2023-01-09T07:29:22.333Z,19.17
2023-01-09T07:31:49.784Z,20.40
2023-01-09T07:34:16.913Z,18.67
2023-01-09T07:36:46.624Z,19.10
2023-01-09T07:39:14.202Z,17.95
2023-01-09T07:41:41.340Z,27.62
2023-01-09T07:44:11.065Z,25.52
2023-01-09T07:46:38.926Z,35.70
2023-01-09T07:49:06.510Z,33.50
2023-01-09T07:51:33.738Z,23.98
2023-01-09T07:54:01.333Z,30.58
2023-01-09T07:56:28.494Z,27.87
2023-01-09T07:58:55.641Z,20.70
2023-01-09T08:01:23.238Z,19.62
2023-01-09T08:03:50.779Z,15.63
2023-01-09T08:06:17.979Z,16.60
2023-01-09T08:08:45.224Z,14.45
2023-01-09T08:11:12.712Z,16.90
2023-01-09T08:13:39.890Z,19.58
2023-01-09T08:16:07.560Z,19.87
2023-01-09T08:18:35.110Z,14.85
2023-01-09T08:21:02.264Z,18.45
2023-01-09T08:23:29.472Z,21.67
2023-01-09T08:25:56.967Z,17.33
2023-01-09T08:28:24.125Z,19.62
2023-01-09T08:30:51.598Z,19.60
2023-01-09T08:33:19.102Z,15.90
2023-01-09T08:35:46.408Z,27.02
2023-01-09T08:38:13.641Z,14.38
2023-01-09T08:40:41.103Z,27.98
2023-01-09T08:43:28.101Z,26.45
2023-01-09T08:46:21.339Z,16.08
2023-01-09T08:48:48.528Z,19.42
2023-01-09T08:51:15.944Z,18.90
2023-01-09T08:53:43.016Z,15.60
2023-01-09T08:56:10.331Z,15.80
2023-01-09T08:58:37.781Z,14.43
2023-01-09T09:01:06.632Z,15.20
2023-01-09T09:03:33.702Z,14.95
2023-01-09T09:06:01.196Z,15.15
2023-01-09T09:08:28.273Z,21.27
2023-01-09T09:10:57.294Z,19.73
2023-01-09T09:13:24.702Z,20.65
2023-01-09T09:15:51.844Z,18.25
2023-01-09T09:18:19.085Z,19.35
2023-01-09T09:20:46.707Z,16.30
2023-01-09T09:23:13.829Z,20.25
2023-01-09T09:25:41.030Z,15.00
2023-01-09T09:28:10.575Z,17.35
2023-01-09T09:30:38.765Z,18.40
2023-01-09T09:33:06.018Z,16.12
2023-01-09T09:35:34.180Z,15.73
2023-01-09T09:38:04.969Z,16.50
2023-01-09T09:40:38.724Z,15.80
2023-01-09T09:43:58.917Z,16.60
2023-01-09T09:46:31.336Z,17.48
2023-01-09T09:49:06.482Z,14.73
2023-01-09T09:52:03.513Z,21.62
2023-01-09T09:54:50.979Z,17.50
2023-01-09T09:57:22.139Z,17.15
2023-01-09T09:59:51.490Z,20.65
2023-01-09T10:02:30.502Z,16.00
2023-01-09T10:05:06.185Z,16.25
2023-01-09T10:07:41.857Z,18.48
2023-01-09T10:10:33.664Z,19.65
2023-01-09T10:13:20.945Z,16.42
2023-01-09T10:16:03.540Z,18.77
2023-01-09T10:18:42.788Z,21.33
2023-01-09T10:21:24.448Z,23.27
2023-01-09T10:23:58.276Z,23.00
2023-01-09T10:26:43.524Z,18.67
2023-01-09T10:29:26.010Z,20.58
2023-01-09T10:32:12.171Z,17.75
2023-01-09T10:35:02.417Z,19.40
2023-01-09T10:37:33.774Z,17.58
2023-01-09T10:40:19.814Z,19.65
2023-01-09T10:42:50.882Z,21.02
2023-01-09T10:45:25.606Z,21.27
2023-01-09T10:47:58.211Z,20.67
2023-01-09T10:50:28.695Z,20.23
2023-01-09T10:52:56.567Z,23.58
2023-01-09T10:55:40.054Z,17.60
2023-01-09T10:58:16.877Z,20.40
2023-01-09T11:00:44.712Z,21.27
2023-01-09T11:03:23.301Z,17.80
2023-01-09T11:05:52.947Z,23.38
2023-01-09T11:08:40.197Z,17.55
2023-01-09T11:11:07.859Z,19.60
2023-01-09T11:13:43.566Z,18.60
2023-01-09T11:16:10.769Z,19.42
2023-01-09T11:18:40.423Z,22.95
2023-01-09T11:21:31.478Z,20.17
2023-01-09T11:24:27.851Z,19.50
2023-01-09T11:27:24.698Z,19.85
2023-01-09T11:30:12.875Z,17.65
2023-01-09T11:32:40.638Z,17.80
2023-01-09T11:35:17.416Z,19.35
2023-01-09T11:37:44.981Z,21.70
2023-01-09T11:40:18.554Z,18.02
2023-01-09T11:43:14.471Z,19.20
2023-01-09T11:45:53.233Z,18.10
2023-01-09T11:48:32.282Z,19.35
2023-01-09T11:51:01.210Z,18.33
2023-01-09T11:53:28.619Z,18.25
2023-01-09T11:56:03.562Z,23.90
2023-01-09T11:58:34.880Z,26.83
2023-01-09T12:01:17.355Z,23.38
2023-01-09T12:04:00.092Z,21.80
2023-01-09T12:06:48.915Z,17.75
2023-01-09T12:09:24.096Z,18.45
2023-01-09T12:12:31.727Z,18.60
2023-01-09T12:14:59.263Z,18.20
2023-01-09T12:17:52.806Z,18.67
2023-01-09T12:20:43.688Z,17.20
2023-01-09T12:23:25.915Z,19.05
2023-01-09T12:26:25.419Z,23.25
2023-01-09T12:29:07.660Z,19.20
2023-01-09T12:31:48.272Z,26.33
2023-01-09T12:34:41.057Z,17.33
2023-01-09T12:37:33.183Z,18.95
2023-01-09T12:40:03.289Z,21.60
2023-01-09T12:43:01.407Z,19.58
2023-01-09T12:45:41.384Z,21.98
2023-01-09T12:48:21.547Z,21.50
2023-01-09T12:50:48.636Z,27.10
2023-01-09T12:53:35.327Z,19.92
2023-01-09T12:56:15.827Z,20.95
2023-01-09T12:58:51.094Z,21.15
2023-01-09T13:01:25.358Z,19.70
2023-01-09T13:04:01.977Z,16.98
2023-01-09T13:06:29.908Z,20.35
2023-01-09T13:09:32.847Z,20.65
2023-01-09T13:12:15.724Z,19.87
2023-01-09T13:14:52.152Z,22.33
2023-01-09T13:17:30.392Z,18.95
2023-01-09T13:19:57.758Z,23.02
2023-01-09T13:22:27.585Z,19.42
2023-01-09T13:25:25.600Z,25.33
2023-01-09T13:27:58.320Z,21.15
2023-01-09T13:31:06.039Z,24.98
2023-01-09T13:33:36.051Z,21.65
2023-01-09T13:36:03.794Z,22.15
2023-01-09T13:38:32.737Z,28.70
2023-01-09T13:41:26.970Z,22.87
2023-01-09T13:43:56.326Z,23.83
2023-01-09T13:46:33.375Z,26.75
2023-01-09T13:49:01.224Z,23.45
2023-01-09T13:51:57.947Z,25.40
2023-01-09T13:54:55.810Z,20.42
2023-01-09T13:57:32.481Z,20.55
2023-01-09T14:00:19.464Z,20.37
2023-01-09T14:02:47.104Z,29.25
2023-01-09T14:05:15.197Z,20.52
2023-01-09T14:07:44.543Z,22.95
2023-01-09T14:10:26.721Z,25.08
2023-01-09T14:12:55.181Z,21.12
2023-01-09T14:15:29.330Z,21.65
2023-01-09T14:18:04.641Z,26.75
2023-01-09T14:20:39.699Z,22.83
2023-01-09T14:23:31.447Z,25.62
2023-01-09T14:25:55.853Z,25.15
2023-01-09T14:28:33.473Z,32.10
2023-01-09T14:31:00.962Z,32.20
2023-01-09T14:33:32.716Z,36.80
2023-01-09T14:35:59.780Z,32.63
2023-01-09T14:38:40.874Z,33.83
2023-01-09T14:41:47.309Z,30.95
2023-01-09T14:44:31.550Z,32.03
2023-01-09T14:47:15.958Z,30.62
2023-01-09T14:49:59.899Z,36.70
2023-01-09T14:52:30.444Z,32.00
2023-01-09T14:55:00.785Z,28.38
2023-01-09T14:57:31.484Z,26.87
2023-01-09T15:00:01.133Z,29.17
2023-01-09T15:02:31.876Z,29.65
2023-01-09T15:05:06.619Z,22.77
2023-01-09T15:07:40.549Z,24.40
2023-01-09T15:12:35.887Z,25.12
2023-01-09T15:15:04.646Z,32.20
2023-01-09T15:17:34.447Z,33.47
2023-01-09T15:20:04.732Z,34.17
2023-01-09T15:22:37.061Z,34.85
2023-01-09T15:25:45.104Z,43.55
2023-01-09T15:28:32.464Z,40.60
2023-01-09T15:31:06.469Z,42.83
2023-01-09T15:36:03.333Z,39.83
2023-01-09T15:38:32.182Z,38.70
2023-01-09T15:41:01.872Z,32.15
2023-01-09T15:43:30.133Z,41.40
2023-01-09T15:45:58.156Z,33.15
2023-01-09T15:48:32.462Z,41.72
2023-01-09T15:51:03.602Z,40.20
2023-01-09T15:53:31.213Z,33.95
2023-01-09T15:56:20.605Z,41.13
2023-01-09T15:58:49.380Z,40.88
2023-01-09T16:01:38.595Z,37.35
2023-01-09T16:04:18.406Z,39.42
2023-01-09T16:06:49.142Z,36.47
2023-01-09T16:09:21.912Z,35.40
2023-01-09T16:11:52.770Z,34.92
2023-01-09T16:14:27.476Z,39.08
2023-01-09T16:16:59.552Z,31.77
2023-01-09T16:19:32.567Z,34.42
2023-01-09T16:22:01.817Z,30.50
2023-01-09T16:24:41.092Z,31.55
2023-01-09T16:27:29.982Z,32.33
2023-01-09T16:30:06.017Z,32.65
2023-01-09T16:32:35.283Z,34.22
2023-01-09T16:35:14.755Z,39.67
2023-01-09T16:37:41.827Z,40.00
2023-01-09T16:40:15.808Z,31.23
2023-01-09T16:43:03.471Z,29.33
2023-01-09T16:45:39.185Z,32.95
2023-01-09T16:48:24.852Z,29.55
2023-01-09T16:50:52.388Z,28.95
2023-01-09T16:53:24.189Z,28.40
2023-01-09T16:55:53.301Z,29.40
2023-01-09T16:58:32.156Z,28.65
2023-01-09T17:01:01.407Z,32.88
2023-01-09T17:03:28.520Z,34.33
2023-01-09T17:05:56.761Z,39.58
2023-01-09T17:08:37.127Z,45.22
2023-01-09T17:11:04.320Z,44.83
2023-01-09T17:13:31.693Z,35.35
2023-01-09T17:15:59.235Z,36.65
2023-01-09T17:18:29.602Z,27.70
2023-01-09T17:20:58.791Z,31.65
2023-01-09T17:23:25.933Z,31.67
2023-01-09T17:26:18.657Z,29.42
2023-01-09T17:28:50.733Z,27.15
2023-01-09T17:31:18.068Z,30.77
2023-01-09T17:33:45.515Z,33.50
2023-01-09T17:36:26.444Z,32.78
2023-01-09T17:38:55.193Z,29.40
2023-01-09T17:41:24.035Z,34.92
2023-01-09T17:43:51.980Z,31.40
2023-01-09T17:46:33.272Z,32.97
2023-01-09T17:49:01.262Z,32.25
2023-01-09T17:51:29.418Z,33.17
2023-01-09T17:53:57.109Z,29.40
2023-01-09T17:56:26.432Z,30.27
2023-01-09T17:58:53.965Z,32.38
2023-01-09T18:01:21.514Z,34.45
2023-01-09T18:03:50.459Z,27.08
2023-01-09T18:06:19.257Z,29.42
2023-01-09T18:08:46.831Z,31.33
2023-01-09T18:11:19.534Z,33.03
2023-01-09T18:13:48.014Z,33.75
2023-01-09T18:16:18.034Z,32.55
2023-01-09T18:18:45.257Z,34.80
2023-01-09T18:21:16.181Z,34.97
2023-01-09T18:23:43.736Z,40.38
2023-01-09T18:26:18.474Z,29.83
2023-01-09T18:28:47.626Z,28.83
2023-01-09T18:31:17.321Z,36.55
2023-01-09T18:33:51.407Z,30.58
2023-01-09T18:38:53.847Z,32.75
2023-01-09T18:41:21.873Z,40.80
2023-01-09T18:43:50.212Z,42.10
2023-01-09T18:46:20.701Z,30.02
2023-01-09T18:48:55.613Z,34.80
2023-01-09T18:51:24.325Z,38.58
2023-01-09T18:53:52.009Z,33.15
2023-01-09T18:56:20.012Z,32.42
2023-01-09T18:58:48.327Z,32.90
2023-01-09T19:01:16.525Z,31.23
2023-01-09T19:03:43.851Z,36.63
2023-01-09T19:06:11.060Z,31.15
2023-01-09T19:08:38.602Z,30.05
2023-01-09T19:11:05.920Z,31.35
2023-01-09T19:13:37.393Z,31.83
2023-01-09T19:16:05.951Z,26.55
2023-01-09T19:18:35.376Z,30.15
2023-01-09T19:21:02.696Z,31.12
2023-01-09T19:23:30.117Z,25.15
2023-01-09T19:25:57.843Z,31.17
2023-01-09T19:28:25.479Z,28.83
2023-01-09T19:30:56.903Z,29.10
2023-01-09T19:33:25.241Z,29.40
2023-01-09T19:35:53.245Z,27.90
2023-01-09T19:38:23.295Z,30.92
2023-01-09T19:40:50.529Z,31.02
2023-01-09T19:43:26.783Z,30.40
2023-01-09T19:45:56.781Z,30.12
2023-01-09T19:48:27.010Z,28.33
2023-01-09T19:51:05.192Z,30.37
2023-01-09T19:53:33.987Z,31.55
2023-01-09T19:56:12.895Z,27.77
2023-01-09T19:58:41.793Z,34.80
2023-01-09T20:01:17.757Z,32.10
2023-01-09T20:03:48.323Z,29.40
2023-01-09T20:06:19.309Z,30.75
2023-01-09T20:08:49.103Z,29.02
2023-01-09T20:11:16.570Z,28.85
2023-01-09T20:13:44.909Z,22.92
2023-01-09T20:16:20.639Z,23.40
2023-01-09T20:18:48.306Z,23.20
2023-01-09T20:23:54.372Z,24.02
2023-01-09T20:26:22.822Z,25.55
2023-01-09T20:28:50.067Z,22.83
2023-01-09T20:31:19.186Z,21.30
2023-01-09T20:33:47.837Z,19.30
2023-01-09T20:36:15.198Z,19.65
2023-01-09T20:38:43.197Z,18.50
2023-01-09T20:41:22.812Z,16.92
2023-01-09T20:43:55.742Z,18.52
2023-01-09T20:46:25.575Z,17.98
2023-01-09T20:48:55.776Z,16.30
2023-01-09T20:51:23.106Z,14.35
2023-01-09T20:53:58.399Z,15.77
2023-01-09T20:56:27.466Z,14.60
2023-01-09T20:58:55.396Z,19.10
2023-01-09T21:01:23.033Z,15.95
2023-01-09T21:03:51.272Z,14.07
2023-01-09T21:06:20.953Z,17.33
2023-01-09T21:08:50.993Z,19.50
2023-01-09T21:11:19.485Z,15.68
2023-01-09T21:13:46.834Z,19.67
2023-01-09T21:16:16.680Z,16.60
2023-01-09T21:18:44.614Z,15.88
2023-01-09T21:21:14.390Z,15.48
2023-01-09T21:23:53.862Z,16.62
2023-01-09T21:26:24.760Z,16.87
2023-01-09T21:28:54.944Z,16.58
2023-01-09T21:31:25.542Z,18.87
2023-01-09T21:33:54.506Z,17.05
2023-01-09T21:36:22.026Z,19.05
2023-01-09T21:38:52.061Z,18.50
2023-01-09T21:41:41.106Z,19.02
2023-01-09T21:44:30.358Z,19.87
2023-01-09T21:46:59.847Z,17.58
2023-01-09T21:49:30.969Z,21.08
2023-01-09T21:51:58.644Z,19.40
2023-01-09T21:54:26.100Z,16.85
2023-01-09T21:56:53.461Z,15.43
2023-01-09T21:59:20.718Z,19.52
2023-01-09T22:01:50.933Z,18.65
2023-01-09T22:04:21.115Z,18.67
2023-01-09T22:06:48.449Z,19.10
2023-01-09T22:09:16.104Z,18.60
2023-01-09T22:11:43.913Z,17.35
2023-01-09T22:14:16.116Z,17.00
2023-01-09T22:16:44.986Z,16.65
2023-01-09T22:19:13.260Z,19.65
2023-01-09T22:21:45.777Z,17.85
2023-01-09T22:24:14.975Z,14.45
2023-01-09T22:26:42.217Z,16.42
2023-01-09T22:29:09.343Z,16.20
2023-01-09T22:31:39.829Z,15.60
2023-01-09T22:34:07.064Z,20.12
2023-01-09T22:36:34.249Z,16.65
2023-01-09T22:39:01.791Z,17.12
2023-01-09T22:41:32.363Z,15.00
2023-01-09T22:43:59.556Z,14.93
2023-01-09T22:46:26.995Z,16.37
2023-01-09T22:48:54.136Z,15.02
2023-01-09T22:51:21.820Z,13.57
2023-01-09T22:53:49.921Z,15.65
2023-01-09T22:56:19.394Z,14.70
2023-01-09T22:58:51.156Z,14.25
2023-01-09T23:01:19.265Z,13.82
2023-01-09T23:03:47.043Z,16.70
2023-01-09T23:06:22.179Z,14.95
2023-01-09T23:08:50.907Z,14.48
2023-01-09T23:11:42.638Z,13.38
2023-01-09T23:14:10.830Z,13.27
2023-01-09T23:16:38.043Z,13.50
2023-01-09T23:19:19.187Z,13.85
2023-01-09T23:21:46.751Z,15.20
2023-01-09T23:24:16.197Z,11.55
2023-01-09T23:26:43.846Z,13.15
2023-01-09T23:29:11.979Z,12.93
2023-01-09T23:31:39.197Z,12.52
2023-01-09T23:34:08.194Z,15.55
2023-01-09T23:36:35.951Z,14.77
2023-01-09T23:39:04.230Z,15.85
2023-01-09T23:42:03.711Z,14.18
2023-01-09T23:44:31.083Z,13.80
2023-01-09T23:46:58.198Z,19.42
2023-01-09T23:49:25.300Z,14.75
2023-01-09T23:51:52.683Z,15.15
2023-01-09T23:54:20.457Z,12.95
2023-01-09T23:56:47.544Z,14.35
2023-01-09T23:59:16.865Z,13.88
